sensor_id;sensor_type;location;lat;lon;timestamp;P1;durP1;ratioP1;P2;durP2;ratioP2
69386;SDS011;56575;48.942;8.404;2022-08-30T00:01:08;7.87;;;2.70;;
69386;SDS011;56575;48.942;8.404;2022-08-30T00:03:43;4.55;;;2.22;;
69386;SDS011;56575;48.942;8.404;2022-08-30T00:06:10;6.88;;;2.30;;
69386;SDS011;56575;48.942;8.404;2022-08-30T00:08:37;3.28;;;2.17;;
69386;SDS011;56575;48.942;8.404;2022-08-30T00:11:05;7.20;;;2.30;;
69386;SDS011;56575;48.942;8.404;2022-08-30T00:13:33;4.28;;;2.30;;
69386;SDS011;56575;48.942;8.404;2022-08-30T00:16:00;4.63;;;2.40;;
69386;SDS011;56575;48.942;8.404;2022-08-30T00:18:26;5.32;;;2.45;;
69386;SDS011;56575;48.942;8.404;2022-08-30T00:20:52;7.07;;;2.67;;
69386;SDS011;56575;48.942;8.404;2022-08-30T00:23:19;4.57;;;2.47;;
69386;SDS011;56575;48.942;8.404;2022-08-30T00:25:45;5.28;;;2.50;;
69386;SDS011;56575;48.942;8.404;2022-08-30T00:28:11;4.10;;;2.50;;
69386;SDS011;56575;48.942;8.404;2022-08-30T00:30:37;5.65;;;2.28;;
69386;SDS011;56575;48.942;8.404;2022-08-30T00:33:04;6.97;;;2.97;;
69386;SDS011;56575;48.942;8.404;2022-08-30T00:35:30;3.60;;;2.20;;
69386;SDS011;56575;48.942;8.404;2022-08-30T00:37:55;4.47;;;2.38;;
69386;SDS011;56575;48.942;8.404;2022-08-30T00:40:21;5.33;;;2.47;;
69386;SDS011;56575;48.942;8.404;2022-08-30T00:42:47;6.03;;;2.38;;
69386;SDS011;56575;48.942;8.404;2022-08-30T00:47:43;5.60;;;2.22;;
69386;SDS011;56575;48.942;8.404;2022-08-30T00:50:09;5.67;;;2.20;;
69386;SDS011;56575;48.942;8.404;2022-08-30T00:52:36;5.00;;;2.25;;
69386;SDS011;56575;48.942;8.404;2022-08-30T00:55:05;5.40;;;2.40;;
69386;SDS011;56575;48.942;8.404;2022-08-30T00:57:31;4.25;;;2.38;;
69386;SDS011;56575;48.942;8.404;2022-08-30T00:59:58;4.97;;;2.58;;
69386;SDS011;56575;48.942;8.404;2022-08-30T01:02:24;5.97;;;2.87;;
69386;SDS011;56575;48.942;8.404;2022-08-30T01:04:51;8.38;;;3.45;;
69386;SDS011;56575;48.942;8.404;2022-08-30T01:07:19;6.55;;;2.80;;
69386;SDS011;56575;48.942;8.404;2022-08-30T01:09:45;5.23;;;3.33;;
69386;SDS011;56575;48.942;8.404;2022-08-30T01:12:10;7.83;;;3.10;;
69386;SDS011;56575;48.942;8.404;2022-08-30T01:14:35;5.20;;;2.50;;
69386;SDS011;56575;48.942;8.404;2022-08-30T01:17:02;5.77;;;2.80;;
69386;SDS011;56575;48.942;8.404;2022-08-30T01:19:43;4.95;;;2.80;;
69386;SDS011;56575;48.942;8.404;2022-08-30T01:25:04;3.30;;;2.13;;
69386;SDS011;56575;48.942;8.404;2022-08-30T01:27:33;6.20;;;2.75;;
69386;SDS011;56575;48.942;8.404;2022-08-30T01:30:03;4.77;;;2.23;;
69386;SDS011;56575;48.942;8.404;2022-08-30T01:32:29;5.43;;;2.38;;
69386;SDS011;56575;48.942;8.404;2022-08-30T01:34:55;4.57;;;2.67;;
69386;SDS011;56575;48.942;8.404;2022-08-30T01:37:29;3.90;;;2.40;;
69386;SDS011;56575;48.942;8.404;2022-08-30T01:39:57;8.00;;;2.40;;
69386;SDS011;56575;48.942;8.404;2022-08-30T01:42:23;6.00;;;2.65;;
69386;SDS011;56575;48.942;8.404;2022-08-30T01:44:49;5.60;;;2.50;;
69386;SDS011;56575;48.942;8.404;2022-08-30T01:47:15;5.53;;;2.60;;
69386;SDS011;56575;48.942;8.404;2022-08-30T01:49:42;4.40;;;2.28;;
69386;SDS011;56575;48.942;8.404;2022-08-30T01:52:08;4.97;;;2.47;;
69386;SDS011;56575;48.942;8.404;2022-08-30T01:54:34;5.20;;;2.70;;
69386;SDS011;56575;48.942;8.404;2022-08-30T01:57:02;6.35;;;2.67;;
69386;SDS011;56575;48.942;8.404;2022-08-30T01:59:30;4.47;;;2.57;;
69386;SDS011;56575;48.942;8.404;2022-08-30T02:01:57;6.05;;;2.85;;
69386;SDS011;56575;48.942;8.404;2022-08-30T02:04:22;6.13;;;2.75;;
69386;SDS011;56575;48.942;8.404;2022-08-30T02:06:48;4.60;;;2.73;;
69386;SDS011;56575;48.942;8.404;2022-08-30T02:09:13;5.00;;;2.80;;
69386;SDS011;56575;48.942;8.404;2022-08-30T02:11:39;5.17;;;3.10;;
69386;SDS011;56575;48.942;8.404;2022-08-30T02:14:04;5.57;;;2.92;;
69386;SDS011;56575;48.942;8.404;2022-08-30T02:16:30;5.18;;;2.70;;
69386;SDS011;56575;48.942;8.404;2022-08-30T02:18:56;5.63;;;2.63;;
69386;SDS011;56575;48.942;8.404;2022-08-30T02:21:21;5.07;;;2.70;;
69386;SDS011;56575;48.942;8.404;2022-08-30T02:23:48;6.28;;;2.65;;
69386;SDS011;56575;48.942;8.404;2022-08-30T02:26:14;7.43;;;3.47;;
69386;SDS011;56575;48.942;8.404;2022-08-30T02:28:41;7.60;;;3.13;;
69386;SDS011;56575;48.942;8.404;2022-08-30T02:31:07;7.47;;;3.33;;
69386;SDS011;56575;48.942;8.404;2022-08-30T02:33:32;6.35;;;3.08;;
69386;SDS011;56575;48.942;8.404;2022-08-30T02:35:59;5.93;;;3.07;;
69386;SDS011;56575;48.942;8.404;2022-08-30T02:38:26;8.05;;;3.80;;
69386;SDS011;56575;48.942;8.404;2022-08-30T02:40:54;6.70;;;3.70;;
69386;SDS011;56575;48.942;8.404;2022-08-30T02:43:21;5.15;;;3.53;;
69386;SDS011;56575;48.942;8.404;2022-08-30T02:45:47;6.97;;;3.28;;
69386;SDS011;56575;48.942;8.404;2022-08-30T02:48:12;6.10;;;3.50;;
69386;SDS011;56575;48.942;8.404;2022-08-30T02:50:43;5.38;;;3.30;;
69386;SDS011;56575;48.942;8.404;2022-08-30T02:53:11;6.72;;;3.85;;
69386;SDS011;56575;48.942;8.404;2022-08-30T02:55:37;7.20;;;4.20;;
69386;SDS011;56575;48.942;8.404;2022-08-30T02:58:03;6.88;;;4.03;;
69386;SDS011;56575;48.942;8.404;2022-08-30T03:00:28;7.27;;;3.90;;
69386;SDS011;56575;48.942;8.404;2022-08-30T03:02:54;7.27;;;3.73;;
69386;SDS011;56575;48.942;8.404;2022-08-30T03:05:19;8.45;;;4.32;;
69386;SDS011;56575;48.942;8.404;2022-08-30T03:07:45;6.87;;;4.60;;
69386;SDS011;56575;48.942;8.404;2022-08-30T03:10:12;7.30;;;4.68;;
69386;SDS011;56575;48.942;8.404;2022-08-30T03:12:40;6.33;;;4.60;;
69386;SDS011;56575;48.942;8.404;2022-08-30T03:15:06;6.18;;;4.00;;
69386;SDS011;56575;48.942;8.404;2022-08-30T03:17:34;8.18;;;4.22;;
69386;SDS011;56575;48.942;8.404;2022-08-30T03:20:00;7.23;;;4.30;;
69386;SDS011;56575;48.942;8.404;2022-08-30T03:22:26;6.45;;;3.97;;
69386;SDS011;56575;48.942;8.404;2022-08-30T03:24:52;6.20;;;3.97;;
69386;SDS011;56575;48.942;8.404;2022-08-30T03:27:21;5.50;;;3.78;;
69386;SDS011;56575;48.942;8.404;2022-08-30T03:29:47;5.97;;;3.60;;
69386;SDS011;56575;48.942;8.404;2022-08-30T03:32:13;6.00;;;3.33;;
69386;SDS011;56575;48.942;8.404;2022-08-30T03:34:38;6.82;;;3.25;;
69386;SDS011;56575;48.942;8.404;2022-08-30T03:37:04;7.50;;;3.40;;
69386;SDS011;56575;48.942;8.404;2022-08-30T03:39:29;7.63;;;4.00;;
69386;SDS011;56575;48.942;8.404;2022-08-30T03:41:55;6.75;;;4.43;;
69386;SDS011;56575;48.942;8.404;2022-08-30T03:44:20;6.20;;;3.87;;
69386;SDS011;56575;48.942;8.404;2022-08-30T03:46:46;8.07;;;4.50;;
69386;SDS011;56575;48.942;8.404;2022-08-30T03:49:11;6.63;;;4.23;;
69386;SDS011;56575;48.942;8.404;2022-08-30T03:51:37;6.70;;;3.77;;
69386;SDS011;56575;48.942;8.404;2022-08-30T03:54:02;6.93;;;4.00;;
69386;SDS011;56575;48.942;8.404;2022-08-30T03:56:29;6.80;;;3.90;;
69386;SDS011;56575;48.942;8.404;2022-08-30T03:58:55;6.78;;;4.20;;
69386;SDS011;56575;48.942;8.404;2022-08-30T04:01:21;6.50;;;4.57;;
69386;SDS011;56575;48.942;8.404;2022-08-30T04:03:48;8.05;;;4.65;;
69386;SDS011;56575;48.942;8.404;2022-08-30T04:06:13;8.35;;;4.95;;
69386;SDS011;56575;48.942;8.404;2022-08-30T04:08:39;8.93;;;4.00;;
69386;SDS011;56575;48.942;8.404;2022-08-30T04:11:06;7.53;;;3.35;;
69386;SDS011;56575;48.942;8.404;2022-08-30T04:13:34;8.52;;;3.78;;
69386;SDS011;56575;48.942;8.404;2022-08-30T04:16:01;5.13;;;3.63;;
69386;SDS011;56575;48.942;8.404;2022-08-30T04:18:27;5.90;;;3.72;;
69386;SDS011;56575;48.942;8.404;2022-08-30T04:20:52;8.10;;;4.32;;
69386;SDS011;56575;48.942;8.404;2022-08-30T04:23:18;7.17;;;3.73;;
69386;SDS011;56575;48.942;8.404;2022-08-30T04:25:44;6.67;;;3.50;;
69386;SDS011;56575;48.942;8.404;2022-08-30T04:28:09;6.00;;;3.22;;
69386;SDS011;56575;48.942;8.404;2022-08-30T04:30:39;5.53;;;3.10;;
69386;SDS011;56575;48.942;8.404;2022-08-30T04:33:06;5.38;;;3.40;;
69386;SDS011;56575;48.942;8.404;2022-08-30T04:35:31;5.85;;;3.33;;
69386;SDS011;56575;48.942;8.404;2022-08-30T04:37:57;6.67;;;3.97;;
69386;SDS011;56575;48.942;8.404;2022-08-30T04:40:23;8.02;;;3.53;;
69386;SDS011;56575;48.942;8.404;2022-08-30T04:42:48;7.73;;;3.73;;
69386;SDS011;56575;48.942;8.404;2022-08-30T04:45:19;7.10;;;3.90;;
69386;SDS011;56575;48.942;8.404;2022-08-30T04:47:45;7.83;;;4.30;;
69386;SDS011;56575;48.942;8.404;2022-08-30T04:50:12;8.77;;;4.65;;
69386;SDS011;56575;48.942;8.404;2022-08-30T04:52:40;6.95;;;4.57;;
69386;SDS011;56575;48.942;8.404;2022-08-30T04:55:06;8.23;;;4.85;;
69386;SDS011;56575;48.942;8.404;2022-08-30T04:57:32;8.63;;;5.03;;
69386;SDS011;56575;48.942;8.404;2022-08-30T04:59:58;5.88;;;4.00;;
69386;SDS011;56575;48.942;8.404;2022-08-30T05:02:23;7.17;;;4.17;;
69386;SDS011;56575;48.942;8.404;2022-08-30T05:04:50;7.20;;;4.55;;
69386;SDS011;56575;48.942;8.404;2022-08-30T05:07:36;7.90;;;4.60;;
69386;SDS011;56575;48.942;8.404;2022-08-30T05:10:02;7.25;;;4.63;;
69386;SDS011;56575;48.942;8.404;2022-08-30T05:12:29;6.53;;;4.50;;
69386;SDS011;56575;48.942;8.404;2022-08-30T05:14:55;11.63;;;5.17;;
69386;SDS011;56575;48.942;8.404;2022-08-30T05:17:23;8.38;;;4.95;;
69386;SDS011;56575;48.942;8.404;2022-08-30T05:19:49;8.15;;;5.18;;
69386;SDS011;56575;48.942;8.404;2022-08-30T05:22:14;7.93;;;5.00;;
69386;SDS011;56575;48.942;8.404;2022-08-30T05:24:40;8.50;;;4.80;;
69386;SDS011;56575;48.942;8.404;2022-08-30T05:27:05;7.40;;;4.80;;
69386;SDS011;56575;48.942;8.404;2022-08-30T05:29:31;8.30;;;5.50;;
69386;SDS011;56575;48.942;8.404;2022-08-30T05:31:57;8.30;;;5.30;;
69386;SDS011;56575;48.942;8.404;2022-08-30T05:34:23;8.13;;;5.27;;
69386;SDS011;56575;48.942;8.404;2022-08-30T05:36:52;8.75;;;4.72;;
69386;SDS011;56575;48.942;8.404;2022-08-30T05:39:30;9.57;;;4.85;;
69386;SDS011;56575;48.942;8.404;2022-08-30T05:41:56;9.13;;;5.13;;
69386;SDS011;56575;48.942;8.404;2022-08-30T05:44:27;7.30;;;4.93;;
69386;SDS011;56575;48.942;8.404;2022-08-30T05:47:03;7.28;;;4.63;;
69386;SDS011;56575;48.942;8.404;2022-08-30T05:49:28;8.33;;;5.27;;
69386;SDS011;56575;48.942;8.404;2022-08-30T05:51:54;6.97;;;4.65;;
69386;SDS011;56575;48.942;8.404;2022-08-30T05:54:23;9.55;;;5.05;;
69386;SDS011;56575;48.942;8.404;2022-08-30T05:56:49;7.73;;;4.63;;
69386;SDS011;56575;48.942;8.404;2022-08-30T05:59:14;7.35;;;4.70;;
69386;SDS011;56575;48.942;8.404;2022-08-30T06:01:41;7.43;;;4.83;;
69386;SDS011;56575;48.942;8.404;2022-08-30T06:04:33;7.30;;;4.00;;
69386;SDS011;56575;48.942;8.404;2022-08-30T06:07:00;7.45;;;4.60;;
69386;SDS011;56575;48.942;8.404;2022-08-30T06:09:26;10.43;;;4.30;;
69386;SDS011;56575;48.942;8.404;2022-08-30T06:11:51;9.13;;;4.50;;
69386;SDS011;56575;48.942;8.404;2022-08-30T06:16:53;6.20;;;4.13;;
69386;SDS011;56575;48.942;8.404;2022-08-30T06:19:18;8.67;;;3.97;;
69386;SDS011;56575;48.942;8.404;2022-08-30T06:21:48;9.40;;;4.57;;
69386;SDS011;56575;48.942;8.404;2022-08-30T06:24:14;7.30;;;4.93;;
69386;SDS011;56575;48.942;8.404;2022-08-30T06:26:43;6.77;;;4.43;;
69386;SDS011;56575;48.942;8.404;2022-08-30T06:29:11;6.87;;;4.73;;
69386;SDS011;56575;48.942;8.404;2022-08-30T06:31:39;7.65;;;4.75;;
69386;SDS011;56575;48.942;8.404;2022-08-30T06:34:15;10.00;;;4.93;;
69386;SDS011;56575;48.942;8.404;2022-08-30T06:36:41;7.53;;;4.95;;
69386;SDS011;56575;48.942;8.404;2022-08-30T06:39:07;8.20;;;4.70;;
69386;SDS011;56575;48.942;8.404;2022-08-30T06:41:33;9.02;;;4.63;;
69386;SDS011;56575;48.942;8.404;2022-08-30T06:44:01;6.45;;;4.28;;
69386;SDS011;56575;48.942;8.404;2022-08-30T06:46:29;7.50;;;4.22;;
69386;SDS011;56575;48.942;8.404;2022-08-30T06:48:56;8.80;;;3.83;;
69386;SDS011;56575;48.942;8.404;2022-08-30T06:51:23;6.32;;;3.72;;
69386;SDS011;56575;48.942;8.404;2022-08-30T06:53:51;7.38;;;4.03;;
69386;SDS011;56575;48.942;8.404;2022-08-30T06:56:17;7.03;;;3.85;;
69386;SDS011;56575;48.942;8.404;2022-08-30T06:58:43;7.83;;;4.00;;
69386;SDS011;56575;48.942;8.404;2022-08-30T07:01:14;7.82;;;4.10;;
69386;SDS011;56575;48.942;8.404;2022-08-30T07:03:45;7.78;;;4.15;;
69386;SDS011;56575;48.942;8.404;2022-08-30T07:06:10;9.73;;;4.47;;
69386;SDS011;56575;48.942;8.404;2022-08-30T07:08:37;5.47;;;3.83;;
69386;SDS011;56575;48.942;8.404;2022-08-30T07:11:03;8.15;;;4.10;;
69386;SDS011;56575;48.942;8.404;2022-08-30T07:13:30;7.90;;;4.10;;
69386;SDS011;56575;48.942;8.404;2022-08-30T07:15:56;7.35;;;4.28;;
69386;SDS011;56575;48.942;8.404;2022-08-30T07:18:22;7.07;;;4.17;;
69386;SDS011;56575;48.942;8.404;2022-08-30T07:21:07;7.78;;;4.13;;
69386;SDS011;56575;48.942;8.404;2022-08-30T07:23:37;7.70;;;4.10;;
69386;SDS011;56575;48.942;8.404;2022-08-30T07:26:07;6.80;;;3.90;;
69386;SDS011;56575;48.942;8.404;2022-08-30T07:28:36;7.97;;;3.80;;
69386;SDS011;56575;48.942;8.404;2022-08-30T07:31:03;7.28;;;4.18;;
69386;SDS011;56575;48.942;8.404;2022-08-30T07:33:30;7.20;;;4.20;;
69386;SDS011;56575;48.942;8.404;2022-08-30T07:35:56;10.65;;;4.40;;
69386;SDS011;56575;48.942;8.404;2022-08-30T07:38:23;9.68;;;4.43;;
69386;SDS011;56575;48.942;8.404;2022-08-30T07:40:49;7.13;;;4.20;;
69386;SDS011;56575;48.942;8.404;2022-08-30T07:43:14;7.38;;;4.05;;
69386;SDS011;56575;48.942;8.404;2022-08-30T07:45:40;5.90;;;4.00;;
69386;SDS011;56575;48.942;8.404;2022-08-30T07:48:05;7.90;;;3.60;;
69386;SDS011;56575;48.942;8.404;2022-08-30T07:50:31;8.18;;;4.28;;
69386;SDS011;56575;48.942;8.404;2022-08-30T07:52:57;8.97;;;3.80;;
69386;SDS011;56575;48.942;8.404;2022-08-30T07:55:23;8.10;;;4.00;;
69386;SDS011;56575;48.942;8.404;2022-08-30T07:57:48;6.70;;;3.67;;
69386;SDS011;56575;48.942;8.404;2022-08-30T08:00:14;5.63;;;3.77;;
69386;SDS011;56575;48.942;8.404;2022-08-30T08:02:40;7.88;;;4.18;;
69386;SDS011;56575;48.942;8.404;2022-08-30T08:05:06;10.73;;;4.40;;
69386;SDS011;56575;48.942;8.404;2022-08-30T08:07:33;8.30;;;4.90;;
69386;SDS011;56575;48.942;8.404;2022-08-30T08:09:59;7.68;;;4.40;;
69386;SDS011;56575;48.942;8.404;2022-08-30T08:12:24;9.70;;;4.70;;
69386;SDS011;56575;48.942;8.404;2022-08-30T08:14:50;9.00;;;4.60;;
69386;SDS011;56575;48.942;8.404;2022-08-30T08:17:15;8.15;;;4.53;;
69386;SDS011;56575;48.942;8.404;2022-08-30T08:19:41;6.03;;;3.90;;
69386;SDS011;56575;48.942;8.404;2022-08-30T08:22:06;5.97;;;4.50;;
69386;SDS011;56575;48.942;8.404;2022-08-30T08:24:32;7.37;;;4.40;;
69386;SDS011;56575;48.942;8.404;2022-08-30T08:26:57;7.13;;;4.53;;
69386;SDS011;56575;48.942;8.404;2022-08-30T08:29:24;7.18;;;4.35;;
69386;SDS011;56575;48.942;8.404;2022-08-30T08:31:51;7.80;;;4.40;;
69386;SDS011;56575;48.942;8.404;2022-08-30T08:34:17;7.70;;;4.80;;
69386;SDS011;56575;48.942;8.404;2022-08-30T08:36:43;6.83;;;4.57;;
69386;SDS011;56575;48.942;8.404;2022-08-30T08:39:19;7.35;;;4.40;;
69386;SDS011;56575;48.942;8.404;2022-08-30T08:41:58;9.97;;;4.67;;
69386;SDS011;56575;48.942;8.404;2022-08-30T08:44:49;6.25;;;4.70;;
69386;SDS011;56575;48.942;8.404;2022-08-30T08:49:55;7.78;;;4.55;;
69386;SDS011;56575;48.942;8.404;2022-08-30T08:52:26;6.75;;;4.22;;
69386;SDS011;56575;48.942;8.404;2022-08-30T08:55:15;5.17;;;3.70;;
69386;SDS011;56575;48.942;8.404;2022-08-30T08:57:44;9.40;;;4.35;;
69386;SDS011;56575;48.942;8.404;2022-08-30T09:00:10;4.90;;;3.58;;
69386;SDS011;56575;48.942;8.404;2022-08-30T09:02:44;6.90;;;4.32;;
69386;SDS011;56575;48.942;8.404;2022-08-30T09:05:13;8.10;;;4.10;;
69386;SDS011;56575;48.942;8.404;2022-08-30T09:07:44;7.10;;;4.20;;
69386;SDS011;56575;48.942;8.404;2022-08-30T09:10:13;6.82;;;4.28;;
69386;SDS011;56575;48.942;8.404;2022-08-30T09:12:39;9.02;;;4.75;;
69386;SDS011;56575;48.942;8.404;2022-08-30T09:15:15;6.07;;;4.27;;
69386;SDS011;56575;48.942;8.404;2022-08-30T09:20:26;7.88;;;4.60;;
69386;SDS011;56575;48.942;8.404;2022-08-30T09:22:53;8.60;;;4.43;;
69386;SDS011;56575;48.942;8.404;2022-08-30T09:25:29;6.18;;;4.22;;
69386;SDS011;56575;48.942;8.404;2022-08-30T09:28:09;8.95;;;4.55;;
69386;SDS011;56575;48.942;8.404;2022-08-30T09:30:37;6.35;;;4.40;;
69386;SDS011;56575;48.942;8.404;2022-08-30T09:33:18;6.33;;;4.20;;
69386;SDS011;56575;48.942;8.404;2022-08-30T09:35:47;9.18;;;4.50;;
69386;SDS011;56575;48.942;8.404;2022-08-30T09:38:19;8.10;;;4.60;;
69386;SDS011;56575;48.942;8.404;2022-08-30T09:40:55;7.47;;;4.20;;
69386;SDS011;56575;48.942;8.404;2022-08-30T09:43:23;6.72;;;4.60;;
69386;SDS011;56575;48.942;8.404;2022-08-30T09:56:52;5.90;;;4.10;;
69386;SDS011;56575;48.942;8.404;2022-08-30T10:04:48;7.40;;;4.47;;
69386;SDS011;56575;48.942;8.404;2022-08-30T10:07:19;6.95;;;4.38;;
69386;SDS011;56575;48.942;8.404;2022-08-30T10:10:00;7.27;;;4.43;;
69386;SDS011;56575;48.942;8.404;2022-08-30T10:12:39;9.98;;;4.50;;
69386;SDS011;56575;48.942;8.404;2022-08-30T10:18:20;8.40;;;4.38;;
69386;SDS011;56575;48.942;8.404;2022-08-30T10:23:52;7.30;;;4.50;;
69386;SDS011;56575;48.942;8.404;2022-08-30T10:26:37;6.40;;;4.45;;
69386;SDS011;56575;48.942;8.404;2022-08-30T10:29:09;12.77;;;4.50;;
69386;SDS011;56575;48.942;8.404;2022-08-30T10:31:47;6.78;;;4.47;;
69386;SDS011;56575;48.942;8.404;2022-08-30T10:34:23;6.70;;;4.70;;
69386;SDS011;56575;48.942;8.404;2022-08-30T10:36:55;7.03;;;4.87;;
69386;SDS011;56575;48.942;8.404;2022-08-30T10:39:30;7.65;;;4.40;;
69386;SDS011;56575;48.942;8.404;2022-08-30T10:42:03;8.75;;;4.38;;
69386;SDS011;56575;48.942;8.404;2022-08-30T10:44:54;8.57;;;4.53;;
69386;SDS011;56575;48.942;8.404;2022-08-30T10:47:36;5.70;;;4.50;;
69386;SDS011;56575;48.942;8.404;2022-08-30T10:50:16;8.63;;;4.73;;
69386;SDS011;56575;48.942;8.404;2022-08-30T10:55:41;5.80;;;4.45;;
69386;SDS011;56575;48.942;8.404;2022-08-30T11:10:49;5.63;;;4.10;;
69386;SDS011;56575;48.942;8.404;2022-08-30T11:13:27;7.05;;;4.50;;
69386;SDS011;56575;48.942;8.404;2022-08-30T11:18:30;6.22;;;4.35;;
69386;SDS011;56575;48.942;8.404;2022-08-30T11:24:11;4.67;;;3.77;;
69386;SDS011;56575;48.942;8.404;2022-08-30T11:29:32;7.53;;;4.95;;
69386;SDS011;56575;48.942;8.404;2022-08-30T11:31:59;6.93;;;4.70;;
69386;SDS011;56575;48.942;8.404;2022-08-30T11:42:46;5.33;;;4.20;;
69386;SDS011;56575;48.942;8.404;2022-08-30T11:48:36;7.38;;;4.30;;
69386;SDS011;56575;48.942;8.404;2022-08-30T11:59:56;8.20;;;5.93;;
69386;SDS011;56575;48.942;8.404;2022-08-30T12:08:08;12.50;;;7.35;;
69386;SDS011;56575;48.942;8.404;2022-08-30T12:10:59;8.32;;;5.72;;
69386;SDS011;56575;48.942;8.404;2022-08-30T12:18:31;7.27;;;5.47;;
69386;SDS011;56575;48.942;8.404;2022-08-30T12:26:45;6.78;;;5.00;;
69386;SDS011;56575;48.942;8.404;2022-08-30T12:29:20;5.68;;;4.47;;
69386;SDS011;56575;48.942;8.404;2022-08-30T12:36:49;7.50;;;5.57;;
69386;SDS011;56575;48.942;8.404;2022-08-30T12:39:20;6.57;;;4.82;;
69386;SDS011;56575;48.942;8.404;2022-08-30T12:41:48;7.18;;;4.82;;
69386;SDS011;56575;48.942;8.404;2022-08-30T12:44:22;4.80;;;4.30;;
69386;SDS011;56575;48.942;8.404;2022-08-30T12:46:57;5.03;;;4.25;;
69386;SDS011;56575;48.942;8.404;2022-08-30T12:49:27;4.47;;;3.93;;
69386;SDS011;56575;48.942;8.404;2022-08-30T12:51:55;5.38;;;4.55;;
69386;SDS011;56575;48.942;8.404;2022-08-30T12:54:40;6.00;;;4.15;;
69386;SDS011;56575;48.942;8.404;2022-08-30T12:57:05;6.13;;;4.17;;
69386;SDS011;56575;48.942;8.404;2022-08-30T13:02:11;5.10;;;4.40;;
69386;SDS011;56575;48.942;8.404;2022-08-30T13:04:38;4.68;;;4.00;;
69386;SDS011;56575;48.942;8.404;2022-08-30T13:07:04;9.30;;;4.77;;
69386;SDS011;56575;48.942;8.404;2022-08-30T13:09:33;9.55;;;4.50;;
69386;SDS011;56575;48.942;8.404;2022-08-30T13:11:59;5.75;;;4.18;;
69386;SDS011;56575;48.942;8.404;2022-08-30T13:14:35;5.40;;;4.07;;
69386;SDS011;56575;48.942;8.404;2022-08-30T13:17:20;5.63;;;3.97;;
69386;SDS011;56575;48.942;8.404;2022-08-30T13:19:55;5.40;;;4.07;;
69386;SDS011;56575;48.942;8.404;2022-08-30T13:22:23;5.50;;;3.92;;
69386;SDS011;56575;48.942;8.404;2022-08-30T13:24:56;4.93;;;3.97;;
69386;SDS011;56575;48.942;8.404;2022-08-30T13:27:23;6.03;;;4.10;;
69386;SDS011;56575;48.942;8.404;2022-08-30T13:29:50;5.45;;;4.30;;
69386;SDS011;56575;48.942;8.404;2022-08-30T13:32:15;5.37;;;4.10;;
69386;SDS011;56575;48.942;8.404;2022-08-30T13:34:41;5.10;;;4.00;;
69386;SDS011;56575;48.942;8.404;2022-08-30T13:37:08;5.88;;;4.72;;
69386;SDS011;56575;48.942;8.404;2022-08-30T13:39:37;5.10;;;3.80;;
69386;SDS011;56575;48.942;8.404;2022-08-30T13:42:02;4.87;;;3.70;;
69386;SDS011;56575;48.942;8.404;2022-08-30T13:44:28;6.53;;;4.17;;
69386;SDS011;56575;48.942;8.404;2022-08-30T13:46:53;5.90;;;4.38;;
69386;SDS011;56575;48.942;8.404;2022-08-30T13:49:26;5.20;;;4.40;;
69386;SDS011;56575;48.942;8.404;2022-08-30T13:51:53;6.75;;;4.50;;
69386;SDS011;56575;48.942;8.404;2022-08-30T13:54:19;7.47;;;4.30;;
69386;SDS011;56575;48.942;8.404;2022-08-30T13:56:48;4.80;;;4.00;;
69386;SDS011;56575;48.942;8.404;2022-08-30T13:59:14;6.03;;;4.40;;
69386;SDS011;56575;48.942;8.404;2022-08-30T14:01:40;5.93;;;4.28;;
69386;SDS011;56575;48.942;8.404;2022-08-30T14:04:05;5.37;;;3.93;;
69386;SDS011;56575;48.942;8.404;2022-08-30T14:06:31;7.37;;;4.50;;
69386;SDS011;56575;48.942;8.404;2022-08-30T14:08:56;7.53;;;4.07;;
69386;SDS011;56575;48.942;8.404;2022-08-30T14:11:22;5.50;;;4.43;;
69386;SDS011;56575;48.942;8.404;2022-08-30T14:13:47;5.60;;;4.30;;
69386;SDS011;56575;48.942;8.404;2022-08-30T14:16:13;8.60;;;4.55;;
69386;SDS011;56575;48.942;8.404;2022-08-30T14:18:38;5.93;;;4.23;;
69386;SDS011;56575;48.942;8.404;2022-08-30T14:21:04;6.20;;;4.10;;
69386;SDS011;56575;48.942;8.404;2022-08-30T14:23:29;5.60;;;4.33;;
69386;SDS011;56575;48.942;8.404;2022-08-30T14:25:55;5.07;;;4.33;;
69386;SDS011;56575;48.942;8.404;2022-08-30T14:28:22;8.25;;;4.57;;
69386;SDS011;56575;48.942;8.404;2022-08-30T14:30:49;6.50;;;4.50;;
69386;SDS011;56575;48.942;8.404;2022-08-30T14:33:15;7.27;;;4.40;;
69386;SDS011;56575;48.942;8.404;2022-08-30T14:35:41;5.32;;;4.50;;
69386;SDS011;56575;48.942;8.404;2022-08-30T14:38:06;8.20;;;4.67;;
69386;SDS011;56575;48.942;8.404;2022-08-30T14:40:31;5.90;;;4.10;;
69386;SDS011;56575;48.942;8.404;2022-08-30T14:42:57;5.50;;;4.20;;
69386;SDS011;56575;48.942;8.404;2022-08-30T14:45:22;5.20;;;4.30;;
69386;SDS011;56575;48.942;8.404;2022-08-30T14:47:48;6.00;;;4.13;;
69386;SDS011;56575;48.942;8.404;2022-08-30T14:50:14;5.15;;;4.15;;
69386;SDS011;56575;48.942;8.404;2022-08-30T14:52:40;5.53;;;4.32;;
69386;SDS011;56575;48.942;8.404;2022-08-30T14:55:06;5.40;;;4.20;;
69386;SDS011;56575;48.942;8.404;2022-08-30T14:57:34;8.30;;;4.25;;
69386;SDS011;56575;48.942;8.404;2022-08-30T14:59:59;6.67;;;4.30;;
69386;SDS011;56575;48.942;8.404;2022-08-30T15:02:25;8.23;;;4.38;;
69386;SDS011;56575;48.942;8.404;2022-08-30T15:04:50;6.17;;;4.23;;
69386;SDS011;56575;48.942;8.404;2022-08-30T15:07:16;5.60;;;3.97;;
69386;SDS011;56575;48.942;8.404;2022-08-30T15:09:41;5.93;;;4.10;;
69386;SDS011;56575;48.942;8.404;2022-08-30T15:12:07;8.27;;;4.13;;
69386;SDS011;56575;48.942;8.404;2022-08-30T15:14:33;6.88;;;4.30;;
69386;SDS011;56575;48.942;8.404;2022-08-30T15:16:59;6.20;;;4.27;;
69386;SDS011;56575;48.942;8.404;2022-08-30T15:19:26;5.85;;;4.32;;
69386;SDS011;56575;48.942;8.404;2022-08-30T15:21:52;5.90;;;4.40;;
69386;SDS011;56575;48.942;8.404;2022-08-30T15:24:19;4.78;;;4.00;;
69386;SDS011;56575;48.942;8.404;2022-08-30T15:26:46;5.87;;;4.43;;
69386;SDS011;56575;48.942;8.404;2022-08-30T15:29:13;5.85;;;4.43;;
69386;SDS011;56575;48.942;8.404;2022-08-30T15:31:41;6.07;;;4.00;;
69386;SDS011;56575;48.942;8.404;2022-08-30T15:34:09;7.78;;;4.57;;
69386;SDS011;56575;48.942;8.404;2022-08-30T15:36:36;6.60;;;3.83;;
69386;SDS011;56575;48.942;8.404;2022-08-30T15:39:03;7.10;;;4.40;;
69386;SDS011;56575;48.942;8.404;2022-08-30T15:41:29;8.25;;;4.20;;
69386;SDS011;56575;48.942;8.404;2022-08-30T15:43:56;5.47;;;4.10;;
69386;SDS011;56575;48.942;8.404;2022-08-30T15:46:24;5.53;;;4.32;;
69386;SDS011;56575;48.942;8.404;2022-08-30T15:48:53;5.50;;;4.28;;
69386;SDS011;56575;48.942;8.404;2022-08-30T15:51:22;6.27;;;4.20;;
69386;SDS011;56575;48.942;8.404;2022-08-30T15:53:48;6.05;;;4.53;;
69386;SDS011;56575;48.942;8.404;2022-08-30T15:56:15;7.25;;;4.65;;
69386;SDS011;56575;48.942;8.404;2022-08-30T15:58:42;5.03;;;4.10;;
69386;SDS011;56575;48.942;8.404;2022-08-30T16:01:08;7.38;;;4.32;;
69386;SDS011;56575;48.942;8.404;2022-08-30T16:03:34;7.05;;;4.00;;
69386;SDS011;56575;48.942;8.404;2022-08-30T16:06:00;6.32;;;4.10;;
69386;SDS011;56575;48.942;8.404;2022-08-30T16:08:26;6.37;;;3.90;;
69386;SDS011;56575;48.942;8.404;2022-08-30T16:10:52;8.50;;;4.13;;
69386;SDS011;56575;48.942;8.404;2022-08-30T16:13:18;4.97;;;4.20;;
69386;SDS011;56575;48.942;8.404;2022-08-30T16:15:43;7.03;;;4.40;;
69386;SDS011;56575;48.942;8.404;2022-08-30T16:18:10;5.60;;;4.00;;
69386;SDS011;56575;48.942;8.404;2022-08-30T16:20:42;6.97;;;3.90;;
69386;SDS011;56575;48.942;8.404;2022-08-30T16:23:08;5.25;;;4.00;;
69386;SDS011;56575;48.942;8.404;2022-08-30T16:25:35;5.80;;;3.92;;
69386;SDS011;56575;48.942;8.404;2022-08-30T16:28:01;9.25;;;3.78;;
69386;SDS011;56575;48.942;8.404;2022-08-30T16:30:26;6.87;;;4.37;;
69386;SDS011;56575;48.942;8.404;2022-08-30T16:32:52;9.18;;;4.13;;
69386;SDS011;56575;48.942;8.404;2022-08-30T16:35:17;5.17;;;4.03;;
69386;SDS011;56575;48.942;8.404;2022-08-30T16:37:43;5.83;;;4.00;;